Time;durP1;ratioP1;P1;durP2;ratioP2;P2;SDS_P1;SDS_P2;PMS_P1;PMS_P2;Temp;Humidity;BMP_temperature;BMP_pressure;BME280_temperature;BME280_humidity;BME280_pressure;Samples;Min_cycle;Max_cycle;Signal;HPM_P1;HPM_P2
2021/10/05 00:01:04;;;;;;;17.25;9.07;;;;;;;13.61;56.03;100736.72;5029148;28;20048;-69
2021/10/05 00:03:30;;;;;;;17.60;9.43;;;;;;;13.51;56.88;100730.66;5030556;28;20041;-69
2021/10/05 00:05:55;;;;;;;20.05;9.48;;;;;;;13.54;56.80;100733.03;5038815;28;20314;-69
2021/10/05 00:08:21;;;;;;;18.90;9.13;;;;;;;13.54;57.08;100736.53;5033070;28;20033;-69
2021/10/05 00:10:46;;;;;;;21.05;9.63;;;;;;;13.58;56.58;100743.19;5026455;28;20312;-69
2021/10/05 00:13:12;;;;;;;19.45;9.52;;;;;;;13.60;56.39;100735.91;5030551;28;20238;-69
2021/10/05 00:15:37;;;;;;;23.90;10.85;;;;;;;13.63;56.45;100734.75;5033490;28;20032;-69
2021/10/05 00:18:03;;;;;;;21.30;9.82;;;;;;;13.55;56.06;100730.22;5031198;28;20034;-69
2021/10/05 00:20:28;;;;;;;21.50;10.55;;;;;;;13.57;56.03;100730.88;5037295;28;20251;-69
2021/10/05 00:22:54;;;;;;;19.35;9.95;;;;;;;13.56;56.39;100728.38;5033786;28;20366;-69
2021/10/05 00:25:19;;;;;;;22.70;10.02;;;;;;;13.56;55.68;100731.88;5025752;28;20354;-69
2021/10/05 00:27:45;;;;;;;26.40;10.82;;;;;;;13.45;56.52;100723.28;5023874;28;20030;-69
2021/10/05 00:30:11;;;;;;;19.13;9.60;;;;;;;13.31;56.33;100727.38;5031189;28;20039;-69
2021/10/05 00:32:36;;;;;;;24.10;10.25;;;;;;;13.22;55.80;100726.47;5039930;28;20330;-69
2021/10/05 00:35:03;;;;;;;21.48;9.73;;;;;;;12.97;55.87;100722.75;5040866;28;20049;-69
2021/10/05 00:37:29;;;;;;;20.58;9.90;;;;;;;12.79;56.77;100714.78;5039754;28;20033;-69
2021/10/05 00:39:54;;;;;;;21.58;9.57;;;;;;;12.86;57.10;100724.81;5041392;28;20021;-69
2021/10/05 00:42:20;;;;;;;23.35;10.90;;;;;;;12.87;57.00;100722.00;5027514;28;20158;-69
2021/10/05 00:44:48;;;;;;;22.05;10.57;;;;;;;12.83;56.37;100722.47;5027107;28;20022;-69
2021/10/05 00:47:15;;;;;;;19.67;10.88;;;;;;;12.70;56.58;100709.56;5031276;28;20017;-69
2021/10/05 00:49:43;;;;;;;24.45;11.88;;;;;;;12.75;56.72;100724.06;5032876;28;20052;-69
2021/10/05 00:52:11;;;;;;;28.85;12.68;;;;;;;12.71;55.78;100720.03;5029363;28;20072;-69
2021/10/05 00:54:38;;;;;;;41.30;16.45;;;;;;;12.77;56.01;100726.56;5030700;28;20045;-69
2021/10/05 00:57:05;;;;;;;82.20;32.50;;;;;;;12.50;58.15;100726.63;5035956;28;20060;-69
2021/10/05 00:59:31;;;;;;;96.88;36.22;;;;;;;12.73;58.34;100718.06;5034782;28;20038;-69
2021/10/05 01:01:57;;;;;;;81.65;32.33;;;;;;;12.67;58.43;100723.97;5026407;28;20389;-69
2021/10/05 01:04:23;;;;;;;87.88;32.85;;;;;;;12.61;57.70;100729.91;5023452;28;20041;-69
2021/10/05 01:06:56;;;;;;;98.18;36.58;;;;;;;12.61;58.12;100726.41;5030559;28;20021;-69
2021/10/05 01:09:21;;;;;;;101.53;37.83;;;;;;;12.49;58.20;100720.47;5025037;28;20053;-69
2021/10/05 01:11:47;;;;;;;111.40;42.80;;;;;;;12.47;58.46;100714.47;5030898;28;20301;-69
2021/10/05 01:14:12;;;;;;;138.02;48.88;;;;;;;12.27;60.05;100723.53;5034574;28;20079;-69
2021/10/05 01:16:38;;;;;;;132.98;48.97;;;;;;;12.39;59.39;100714.38;5033168;28;20029;-69
2021/10/05 01:19:04;;;;;;;126.32;49.08;;;;;;;12.51;59.26;100717.69;5031492;28;20022;-69
2021/10/05 01:21:30;;;;;;;135.05;52.22;;;;;;;12.58;59.06;100724.06;5034862;28;20029;-69
2021/10/05 01:24:04;;;;;;;135.90;48.58;;;;;;;12.34;59.27;100711.34;5036269;28;20033;-69
2021/10/05 01:26:30;;;;;;;116.68;41.85;;;;;;;12.23;60.01;100714.19;5035977;28;20072;-69
2021/10/05 01:28:55;;;;;;;86.07;32.50;;;;;;;12.24;60.33;100710.56;5007588;28;20324;-69
2021/10/05 01:31:21;;;;;;;64.65;25.23;;;;;;;12.20;60.13;100712.69;5031074;28;20033;-69
2021/10/05 01:33:46;;;;;;;59.40;23.85;;;;;;;11.80;62.47;100711.22;5029695;28;20033;-69
2021/10/05 01:36:11;;;;;;;53.03;20.33;;;;;;;11.63;63.19;100711.94;5041449;28;20056;-69
2021/10/05 01:38:37;;;;;;;62.92;22.05;;;;;;;11.62;62.63;100712.94;5041416;28;20128;-69
2021/10/05 01:41:02;;;;;;;51.90;20.92;;;;;;;11.55;63.42;100711.00;5040822;28;20362;-69
2021/10/05 01:43:28;;;;;;;42.92;19.65;;;;;;;11.55;63.29;100722.44;5041775;28;20033;-69
2021/10/05 01:45:53;;;;;;;42.47;17.42;;;;;;;11.98;62.27;100713.91;5043287;28;20044;-69
2021/10/05 01:48:19;;;;;;;34.78;16.23;;;;;;;11.95;62.86;100708.06;5045277;28;20101;-69
2021/10/05 01:50:44;;;;;;;36.92;15.15;;;;;;;11.72;62.96;100715.53;5045632;28;20144;-69
2021/10/05 01:53:09;;;;;;;37.58;15.27;;;;;;;11.99;62.83;100706.78;5045200;28;20067;-69
2021/10/05 01:55:35;;;;;;;33.65;15.18;;;;;;;12.16;62.04;100706.00;5045455;28;20060;-69
2021/10/05 01:58:00;;;;;;;42.40;15.65;;;;;;;12.10;62.17;100707.41;5045649;28;20033;-69
2021/10/05 02:00:26;;;;;;;38.15;15.63;;;;;;;12.40;60.76;100705.41;5045307;28;20037;-69
2021/10/05 02:02:53;;;;;;;30.08;14.55;;;;;;;12.47;60.65;100699.34;5044946;28;20386;-69
2021/10/05 02:05:19;;;;;;;30.02;13.98;;;;;;;12.47;59.62;100702.00;5045339;28;20037;-69
2021/10/05 02:07:44;;;;;;;38.33;15.27;;;;;;;12.31;59.78;100709.81;5044999;28;20212;-69
2021/10/05 02:10:10;;;;;;;33.53;14.77;;;;;;;11.86;61.58;100722.22;5044771;28;20224;-69
2021/10/05 02:12:36;;;;;;;36.85;16.13;;;;;;;12.02;60.77;100715.28;5044703;28;20029;-69
2021/10/05 02:15:01;;;;;;;33.30;15.57;;;;;;;11.98;59.39;100708.59;5045104;28;20041;-69
2021/10/05 02:17:27;;;;;;;30.45;14.40;;;;;;;11.90;59.42;100716.47;5044726;28;20041;-69
2021/10/05 02:19:52;;;;;;;27.90;13.63;;;;;;;11.93;60.36;100713.53;5045113;28;20214;-69
2021/10/05 02:22:18;;;;;;;32.15;14.60;;;;;;;11.90;60.99;100708.50;5042541;28;20402;-69
2021/10/05 02:24:44;;;;;;;31.98;14.00;;;;;;;11.72;62.64;100712.88;5044089;28;20037;-69
2021/10/05 02:27:18;;;;;;;25.10;13.18;;;;;;;11.82;62.37;100711.06;5040565;28;20255;-69
2021/10/05 02:29:45;;;;;;;26.23;13.73;;;;;;;11.94;61.65;100717.84;5037704;28;20041;-69
2021/10/05 02:32:12;;;;;;;32.97;12.57;;;;;;;11.99;61.41;100718.25;5034375;28;20029;-69
2021/10/05 02:34:38;;;;;;;26.70;12.30;;;;;;;11.74;61.89;100716.22;5029505;28;20037;-69
2021/10/05 02:37:05;;;;;;;24.85;12.48;;;;;;;11.55;61.65;100721.59;5023682;28;20319;-69
2021/10/05 02:39:31;;;;;;;33.42;14.45;;;;;;;11.31;62.87;100725.53;5025905;28;20314;-69
2021/10/05 02:41:56;;;;;;;34.72;14.10;;;;;;;11.57;61.99;100717.00;5034479;28;20038;-69
2021/10/05 02:44:23;;;;;;;35.05;13.52;;;;;;;11.48;62.29;100724.00;5033144;28;20041;-69
2021/10/05 02:46:49;;;;;;;25.75;13.02;;;;;;;11.48;62.15;100706.28;5043089;28;20038;-69
2021/10/05 02:49:15;;;;;;;26.05;12.18;;;;;;;11.51;62.28;100727.19;5043520;28;20033;-69
2021/10/05 02:51:41;;;;;;;27.88;13.05;;;;;;;11.58;61.81;100729.28;5032648;28;20048;-69
2021/10/05 02:54:07;;;;;;;26.10;12.13;;;;;;;11.68;61.70;100733.56;5039507;28;20108;-69
2021/10/05 02:56:32;;;;;;;28.23;13.50;;;;;;;11.68;61.40;100730.06;5034920;28;20188;-69
2021/10/05 02:58:58;;;;;;;25.05;12.55;;;;;;;11.72;61.55;100723.50;5036418;28;20362;-69
2021/10/05 03:01:23;;;;;;;29.23;14.30;;;;;;;11.70;62.03;100726.28;5027145;28;20029;-69
2021/10/05 03:03:49;;;;;;;31.35;13.60;;;;;;;11.74;61.65;100729.50;5027794;28;20030;-69
2021/10/05 03:06:14;;;;;;;36.45;15.75;;;;;;;11.71;61.03;100727.97;5025971;28;20026;-69
2021/10/05 03:08:42;;;;;;;36.05;17.67;;;;;;;11.88;60.58;100722.91;5033492;28;20345;-69
2021/10/05 03:11:08;;;;;;;34.05;16.98;;;;;;;11.78;61.39;100726.44;5032393;28;20030;-69
2021/10/05 03:13:35;;;;;;;41.25;17.27;;;;;;;11.62;61.48;100720.88;5022981;28;20137;-69
2021/10/05 03:16:02;;;;;;;33.63;17.92;;;;;;;11.48;62.70;100734.59;5024253;28;20053;-70
2021/10/05 03:18:27;;;;;;;32.35;15.45;;;;;;;11.60;62.20;100722.00;5024700;28;20029;-69
2021/10/05 03:20:53;;;;;;;34.22;13.20;;;;;;;11.52;62.57;100733.34;5036163;28;20026;-69
2021/10/05 03:23:18;;;;;;;29.70;14.40;;;;;;;11.41;62.97;100722.88;5034650;28;20029;-69
2021/10/05 03:25:44;;;;;;;37.20;13.32;;;;;;;11.57;61.70;100725.78;5025086;28;20226;-69
2021/10/05 03:28:09;;;;;;;25.45;13.20;;;;;;;11.56;61.64;100724.13;5029595;28;20041;-69
2021/10/05 03:30:35;;;;;;;35.45;13.68;;;;;;;11.52;61.52;100738.66;5032759;28;20353;-69
2021/10/05 03:33:00;;;;;;;33.40;14.52;;;;;;;11.10;63.67;100731.03;5028254;28;20215;-69
2021/10/05 03:35:26;;;;;;;30.75;15.00;;;;;;;11.35;62.90;100734.06;5032560;28;20372;-69
2021/10/05 03:37:51;;;;;;;33.40;13.68;;;;;;;11.40;62.01;100735.28;5030143;28;20143;-69
2021/10/05 03:40:17;;;;;;;28.02;13.20;;;;;;;11.38;61.72;100723.16;5030403;28;20025;-69
2021/10/05 03:42:42;;;;;;;31.33;12.52;;;;;;;11.62;61.25;100730.66;5031709;28;20053;-69
2021/10/05 03:45:08;;;;;;;30.50;13.60;;;;;;;11.76;59.98;100738.97;5025082;28;20188;-69
2021/10/05 03:47:36;;;;;;;26.55;13.57;;;;;;;11.80;60.05;100735.09;5022141;28;20041;-69
2021/10/05 03:50:07;;;;;;;30.80;12.68;;;;;;;11.64;60.44;100720.75;5032046;28;20307;-69
2021/10/05 03:52:33;;;;;;;24.17;12.73;;;;;;;11.65;60.29;100731.19;5029166;28;20029;-69
2021/10/05 03:54:59;;;;;;;29.20;13.10;;;;;;;11.53;61.21;100732.34;5022434;28;20300;-69
2021/10/05 03:57:25;;;;;;;35.30;14.60;;;;;;;11.38;61.17;100736.41;5022299;28;20104;-69
2021/10/05 03:59:50;;;;;;;26.23;13.88;;;;;;;11.45;60.55;100740.19;5018833;28;20124;-69
2021/10/05 04:02:15;;;;;;;26.20;12.95;;;;;;;11.55;58.59;100738.34;5032381;28;20056;-69
2021/10/05 04:04:41;;;;;;;28.67;13.18;;;;;;;11.37;58.97;100740.03;5034815;28;20326;-69
2021/10/05 04:07:06;;;;;;;31.15;12.90;;;;;;;11.40;58.51;100739.75;5030730;28;20366;-69
2021/10/05 04:09:32;;;;;;;37.83;13.55;;;;;;;11.18;58.87;100727.66;5036094;28;20025;-69
2021/10/05 04:11:57;;;;;;;29.52;13.02;;;;;;;11.20;59.06;100753.06;5036331;28;20078;-69
2021/10/05 04:14:23;;;;;;;43.00;19.75;;;;;;;11.06;58.73;100721.69;5036489;28;20212;-69
2021/10/05 04:16:48;;;;;;;60.38;17.45;;;;;;;11.13;59.11;100754.59;5034764;28;20476;-69
2021/10/05 04:19:14;;;;;;;46.92;16.25;;;;;;;11.05;59.44;100756.28;5035502;28;20319;-69
2021/10/05 04:21:39;;;;;;;33.40;13.30;;;;;;;10.98;59.81;100747.22;5036344;28;20033;-68
2021/10/05 04:24:05;;;;;;;30.42;12.98;;;;;;;10.88;60.12;100745.41;5036436;28;20055;-69
2021/10/05 04:26:30;;;;;;;31.17;14.13;;;;;;;10.76;60.01;100741.22;5035861;28;20324;-69
2021/10/05 04:28:56;;;;;;;42.92;14.70;;;;;;;10.72;60.42;100752.22;5019521;28;20033;-69
2021/10/05 04:31:21;;;;;;;34.50;13.32;;;;;;;10.61;60.76;100760.31;5034199;28;20048;-69
2021/10/05 04:33:47;;;;;;;37.38;15.02;;;;;;;10.67;60.38;100754.47;5035524;28;20041;-69
2021/10/05 04:36:12;;;;;;;33.35;14.02;;;;;;;10.79;60.09;100756.84;5035517;28;20238;-69
2021/10/05 04:38:38;;;;;;;48.15;15.65;;;;;;;10.80;61.02;100755.84;5033744;28;20044;-69
2021/10/05 04:41:03;;;;;;;65.18;14.25;;;;;;;10.80;60.91;100753.22;5033187;28;20041;-69
2021/10/05 04:43:29;;;;;;;49.78;15.20;;;;;;;10.98;59.57;100758.66;5035079;28;20065;-69
2021/10/05 04:45:54;;;;;;;35.25;14.57;;;;;;;10.80;60.92;100747.91;5035489;28;20025;-69
2021/10/05 04:48:19;;;;;;;35.17;13.50;;;;;;;10.98;59.14;100760.47;5036794;28;20049;-69
2021/10/05 04:50:45;;;;;;;36.03;13.25;;;;;;;11.02;58.40;100773.28;5017405;28;20037;-69
2021/10/05 04:53:10;;;;;;;26.65;12.75;;;;;;;10.97;59.19;100764.09;5034123;28;20037;-69
2021/10/05 04:55:37;;;;;;;33.70;12.88;;;;;;;11.07;58.09;100767.56;5035644;28;20040;-69
2021/10/05 04:58:03;;;;;;;56.75;13.48;;;;;;;11.08;59.30;100774.53;5033852;28;20360;-69
2021/10/05 05:00:29;;;;;;;32.30;12.27;;;;;;;11.07;58.92;100776.38;5033230;28;20053;-69
2021/10/05 05:02:54;;;;;;;32.60;13.10;;;;;;;11.12;59.41;100775.94;5035200;28;20030;-69
2021/10/05 05:05:20;;;;;;;49.25;15.20;;;;;;;11.07;60.46;100783.47;5034309;28;20100;-69
2021/10/05 05:07:45;;;;;;;64.45;18.98;;;;;;;11.00;61.73;100785.00;5034441;28;20045;-69
2021/10/05 05:10:11;;;;;;;49.17;14.93;;;;;;;11.33;60.48;100786.38;5032280;28;20704;-69
2021/10/05 05:12:36;;;;;;;48.50;16.95;;;;;;;11.60;59.39;100793.63;5034085;28;20041;-69
2021/10/05 05:15:03;;;;;;;34.33;14.43;;;;;;;11.50;60.27;100796.31;5034343;28;20045;-69
2021/10/05 05:17:28;;;;;;;41.25;14.27;;;;;;;11.20;61.01;100792.81;5034443;28;20109;-69
2021/10/05 05:19:54;;;;;;;31.40;14.05;;;;;;;11.48;60.61;100792.97;5033980;28;20241;-69
2021/10/05 05:22:19;;;;;;;38.47;14.68;;;;;;;11.67;60.53;100794.72;5034326;28;20264;-69
2021/10/05 05:24:45;;;;;;;36.55;13.57;;;;;;;11.85;59.17;100789.53;5034723;28;20033;-69
2021/10/05 05:27:10;;;;;;;39.22;13.98;;;;;;;12.06;58.95;100788.34;5034215;28;20014;-69
2021/10/05 05:29:36;;;;;;;29.33;13.15;;;;;;;12.11;59.13;100783.44;5035182;28;20049;-69
2021/10/05 05:32:01;;;;;;;32.22;14.10;;;;;;;11.92;59.88;100787.97;5034071;28;20053;-69
2021/10/05 05:34:27;;;;;;;39.28;15.88;;;;;;;11.78;60.40;100790.13;5034742;28;20037;-69
2021/10/05 05:36:54;;;;;;;42.00;18.42;;;;;;;11.94;60.45;100781.53;5035614;28;20331;-69
2021/10/05 05:39:19;;;;;;;39.58;15.90;;;;;;;12.30;59.82;100786.97;5034432;28;20128;-69
2021/10/05 05:41:45;;;;;;;35.45;20.50;;;;;;;12.59;59.51;100781.53;5031962;28;20200;-69
2021/10/05 05:44:14;;;;;;;31.92;16.17;;;;;;;12.66;59.06;100786.09;5034224;28;20105;-69
2021/10/05 05:46:41;;;;;;;32.00;11.98;;;;;;;13.22;58.05;100790.28;5034310;28;20307;-69
2021/10/05 05:49:07;;;;;;;39.33;11.80;;;;;;;13.39;57.99;100796.59;5035863;28;20030;-69
2021/10/05 05:51:33;;;;;;;41.47;11.50;;;;;;;13.70;57.15;100794.34;5034557;28;20353;-69
2021/10/05 05:53:59;;;;;;;31.65;11.63;;;;;;;13.84;57.07;100801.75;5033726;28;20025;-69
2021/10/05 05:56:24;;;;;;;26.05;11.05;;;;;;;13.82;56.47;100758.47;5034869;28;20043;-69
2021/10/05 05:58:52;;;;;;;25.60;11.85;;;;;;;14.17;56.19;100804.56;5034597;28;20064;-69
2021/10/05 06:01:21;;;;;;;31.60;12.70;;;;;;;14.30;55.74;100799.66;5032929;28;20045;-69
2021/10/05 06:03:49;;;;;;;30.02;13.55;;;;;;;14.44;55.63;100808.88;5034641;28;20319;-69
2021/10/05 06:06:15;;;;;;;28.88;12.32;;;;;;;14.50;56.21;100808.25;5033029;28;20060;-69
2021/10/05 06:08:42;;;;;;;36.85;13.00;;;;;;;14.94;54.95;100804.38;5034746;28;20029;-69
2021/10/05 06:11:07;;;;;;;36.70;14.05;;;;;;;15.22;54.21;100804.91;5034119;28;20063;-69
2021/10/05 06:13:33;;;;;;;31.95;15.75;;;;;;;15.50;53.14;100810.72;5035151;28;20045;-69
2021/10/05 06:15:59;;;;;;;32.20;14.43;;;;;;;15.94;52.23;100813.06;5032651;28;20033;-69
2021/10/05 06:18:24;;;;;;;25.70;12.27;;;;;;;16.15;50.80;100775.94;5036010;28;20045;-69
2021/10/05 06:20:49;;;;;;;32.70;13.63;;;;;;;16.64;50.73;100817.63;5032991;28;20061;-69
2021/10/05 06:23:15;;;;;;;33.75;14.73;;;;;;;16.66;49.75;100818.34;5034608;28;20041;-69
2021/10/05 06:25:42;;;;;;;30.00;14.55;;;;;;;16.68;50.62;100822.53;5034550;28;20032;-69
2021/10/05 06:28:08;;;;;;;29.02;13.45;;;;;;;16.47;51.14;100820.38;5034059;28;20057;-69
2021/10/05 06:30:36;;;;;;;32.60;14.90;;;;;;;16.34;51.52;100816.59;5033833;28;20139;-69
2021/10/05 06:33:01;;;;;;;26.88;13.02;;;;;;;16.93;50.37;100817.84;5036247;28;20049;-69
2021/10/05 06:35:30;;;;;;;27.58;12.93;;;;;;;17.02;50.26;100815.97;5038651;28;20022;-69
2021/10/05 06:37:56;;;;;;;28.10;10.80;;;;;;;17.18;50.27;100823.88;5037403;28;20040;-69
2021/10/05 06:40:24;;;;;;;27.38;10.05;;;;;;;17.09;49.60;100819.59;5036646;28;20051;-69
2021/10/05 06:42:50;;;;;;;28.52;12.07;;;;;;;17.16;50.11;100834.75;5035402;28;20052;-69
2021/10/05 06:45:15;;;;;;;17.23;8.90;;;;;;;17.21;50.29;100837.72;5038181;28;20033;-69
2021/10/05 06:47:41;;;;;;;19.77;9.80;;;;;;;17.28;49.47;100847.72;5037468;28;20052;-70
2021/10/05 06:50:07;;;;;;;18.90;10.23;;;;;;;17.51;49.42;100843.19;5036691;28;20025;-70
2021/10/05 06:52:33;;;;;;;19.35;11.18;;;;;;;17.32;49.73;100839.16;5035818;28;20036;-70
2021/10/05 06:54:59;;;;;;;22.23;10.30;;;;;;;17.32;49.39;100824.94;5038317;28;20052;-70
2021/10/05 06:57:24;;;;;;;24.58;11.00;;;;;;;18.08;47.16;100826.63;5037510;28;20250;-70
2021/10/05 06:59:50;;;;;;;25.20;10.27;;;;;;;18.25;46.79;100827.25;5036138;28;20021;-70
2021/10/05 07:02:15;;;;;;;32.17;14.38;;;;;;;18.14;46.51;100839.28;5038943;28;20047;-70
2021/10/05 07:04:41;;;;;;;24.60;12.20;;;;;;;18.46;46.31;100838.06;5037496;28;20043;-70
2021/10/05 07:07:06;;;;;;;29.63;13.20;;;;;;;18.47;45.51;100842.41;5036860;28;20036;-69
2021/10/05 07:09:31;;;;;;;50.45;19.58;;;;;;;18.84;44.58;100833.41;5037084;28;20048;-70
2021/10/05 07:11:58;;;;;;;20.80;10.73;;;;;;;18.96;43.14;100841.81;5035926;28;20021;-70
2021/10/05 07:14:23;;;;;;;23.80;11.10;;;;;;;19.28;42.68;100837.78;5035259;28;20105;-69
2021/10/05 07:16:48;;;;;;;17.52;8.65;;;;;;;19.04;42.70;100825.59;5036285;28;20021;-69
2021/10/05 07:19:14;;;;;;;19.33;8.80;;;;;;;19.38;42.00;100830.25;5037133;28;20346;-69
2021/10/05 07:21:39;;;;;;;20.85;8.65;;;;;;;19.68;41.62;100829.09;5036468;28;20223;-70
2021/10/05 07:24:05;;;;;;;26.20;11.10;;;;;;;19.72;41.87;100824.16;5037057;28;20033;-70
2021/10/05 07:26:31;;;;;;;21.30;9.65;;;;;;;19.76;41.35;100814.66;5038317;28;20025;-70
2021/10/05 07:28:57;;;;;;;27.67;8.43;;;;;;;19.82;41.27;100827.34;5037168;28;20042;-70
2021/10/05 07:31:22;;;;;;;17.40;8.27;;;;;;;20.24;40.69;100829.06;5036353;28;20330;-70
2021/10/05 07:33:47;;;;;;;21.55;11.75;;;;;;;20.28;40.23;100835.72;5035768;28;20424;-70
2021/10/05 07:36:13;;;;;;;24.70;8.18;;;;;;;20.62;39.14;100831.34;5035500;28;20346;-70
2021/10/05 07:38:39;;;;;;;20.63;7.32;;;;;;;20.75;39.22;100827.84;5035521;28;20060;-69
2021/10/05 07:41:05;;;;;;;15.48;7.47;;;;;;;20.57;39.59;100834.63;5019797;28;20029;-69
2021/10/05 07:43:31;;;;;;;17.48;8.85;;;;;;;20.72;39.83;100826.41;5034102;28;20037;-70
2021/10/05 07:45:58;;;;;;;22.23;9.15;;;;;;;20.78;39.70;100825.59;5034558;28;21352;-70
2021/10/05 07:48:25;;;;;;;11.63;6.43;;;;;;;21.00;40.02;100818.22;5035865;28;20096;-70
2021/10/05 07:50:50;;;;;;;16.42;6.45;;;;;;;21.49;38.71;100809.81;5037519;28;20037;-70
2021/10/05 07:53:16;;;;;;;15.70;6.13;;;;;;;21.55;38.79;100817.06;5035370;28;20057;-70
2021/10/05 07:55:41;;;;;;;16.02;6.60;;;;;;;21.73;38.86;100810.22;5034657;28;20045;-70
2021/10/05 07:58:07;;;;;;;13.07;6.43;;;;;;;21.69;38.75;100801.72;5035073;28;20104;-70
2021/10/05 08:00:32;;;;;;;10.93;6.00;;;;;;;21.79;39.35;100802.13;5036807;28;20037;-70
2021/10/05 08:02:58;;;;;;;12.43;5.85;;;;;;;21.38;40.28;100809.59;5034965;28;20029;-69
2021/10/05 08:05:23;;;;;;;15.73;6.32;;;;;;;21.03;41.70;100799.81;5036793;28;20021;-70
2021/10/05 08:08:05;;;;;;;12.80;5.80;;;;;;;19.92;43.69;100810.88;5036612;28;20037;-70
2021/10/05 08:10:31;;;;;;;13.05;5.30;;;;;;;20.06;44.23;100807.25;5034184;28;20034;-70
2021/10/05 08:12:57;;;;;;;14.35;5.93;;;;;;;20.37;43.56;100813.00;5034638;28;20350;-69
2021/10/05 08:15:22;;;;;;;16.83;4.85;;;;;;;20.35;44.62;100815.06;5036025;28;20400;-70
2021/10/05 08:17:48;;;;;;;11.82;5.60;;;;;;;19.97;45.51;100813.81;5035753;28;20105;-70
2021/10/05 08:20:13;;;;;;;11.43;5.95;;;;;;;19.60;46.40;100812.28;5035814;28;20044;-70
2021/10/05 08:22:39;;;;;;;12.80;5.97;;;;;;;19.56;46.28;100811.84;5035709;28;20219;-70
2021/10/05 08:25:05;;;;;;;15.07;6.25;;;;;;;19.09;47.85;100813.25;5036107;28;20227;-70
2021/10/05 08:27:30;;;;;;;17.60;6.10;;;;;;;18.91;48.46;100807.50;5034318;28;20037;-70
2021/10/05 08:29:56;;;;;;;10.00;5.65;;;;;;;19.00;49.23;100810.88;5039299;28;20349;-70
2021/10/05 08:32:22;;;;;;;17.80;5.50;;;;;;;19.34;47.94;100813.69;5023762;28;20033;-70
2021/10/05 08:34:47;;;;;;;11.50;5.10;;;;;;;18.93;48.95;100815.34;5040342;28;20039;-70
2021/10/05 08:37:13;;;;;;;7.68;4.85;;;;;;;19.13;49.35;100806.47;5040997;28;20067;-70
2021/10/05 08:39:38;;;;;;;14.85;4.57;;;;;;;19.15;49.39;100808.97;5040690;28;20040;-70
2021/10/05 08:42:05;;;;;;;9.25;4.22;;;;;;;19.32;47.84;100799.63;5039979;28;20048;-70
2021/10/05 08:44:31;;;;;;;9.02;4.72;;;;;;;19.46;48.13;100812.13;5043250;28;20033;-70
2021/10/05 08:46:57;;;;;;;7.97;4.20;;;;;;;19.31;48.27;100807.88;5040686;28;20025;-70
2021/10/05 08:49:23;;;;;;;9.50;4.30;;;;;;;18.91;49.48;100807.50;5040242;28;20337;-70
2021/10/05 08:51:50;;;;;;;13.85;4.03;;;;;;;19.47;47.77;100804.91;5041264;28;20052;-70
2021/10/05 08:54:16;;;;;;;7.43;4.22;;;;;;;19.60;47.30;100809.59;5040248;28;20033;-70
2021/10/05 08:56:45;;;;;;;15.90;4.43;;;;;;;19.56;47.23;100802.94;5039833;28;20407;-70
2021/10/05 08:59:12;;;;;;;12.98;4.90;;;;;;;19.77;46.45;100797.56;5040627;28;20030;-70
2021/10/05 09:01:38;;;;;;;13.00;5.47;;;;;;;19.72;47.29;100802.66;5038045;28;20037;-70
2021/10/05 09:04:05;;;;;;;12.00;6.00;;;;;;;19.67;47.25;100789.81;5040466;28;20111;-70
2021/10/05 09:06:31;;;;;;;10.90;5.43;;;;;;;19.46;47.58;100787.97;5040271;28;20074;-70
2021/10/05 09:08:57;;;;;;;13.35;5.82;;;;;;;19.45;48.22;100793.53;5040144;28;20088;-70
2021/10/05 09:11:24;;;;;;;9.70;5.53;;;;;;;19.30;47.84;100798.16;5039799;28;20045;-70
2021/10/05 09:13:56;;;;;;;12.35;4.95;;;;;;;19.30;47.99;100792.78;5040272;28;20231;-70
2021/10/05 09:16:30;;;;;;;13.27;4.68;;;;;;;19.18;48.64;100787.09;5040030;28;20029;-70
2021/10/05 09:19:05;;;;;;;13.80;4.95;;;;;;;18.86;49.40;100787.63;5040256;28;20093;-69
2021/10/05 09:21:35;;;;;;;11.48;4.88;;;;;;;18.64;50.10;100786.72;5040122;28;20076;-69
2021/10/05 09:24:08;;;;;;;12.05;4.53;;;;;;;18.62;49.08;100794.97;5022485;28;20357;-70
2021/10/05 09:26:50;;;;;;;18.95;5.53;;;;;;;18.56;49.77;100793.00;5039976;28;20222;-70
2021/10/05 09:29:28;;;;;;;14.13;5.18;;;;;;;18.50;50.29;100797.25;5040473;28;20119;-70
2021/10/05 09:31:58;;;;;;;10.25;4.30;;;;;;;18.50;50.11;100796.44;5039983;28;20044;-69
2021/10/05 09:34:54;;;;;;;10.93;4.53;;;;;;;18.88;49.43;100780.19;5040324;28;20075;-70
2021/10/05 09:37:33;;;;;;;9.98;4.82;;;;;;;18.61;49.37;100784.38;5021382;28;20033;-70
2021/10/05 09:40:07;;;;;;;10.15;4.03;;;;;;;18.65;48.59;100781.16;5039795;28;20052;-70
2021/10/05 09:42:36;;;;;;;;;;;;;;;18.67;48.80;100792.53;5032189;28;20046;-70
2021/10/05 09:45:06;;;;;;;8.52;4.20;;;;;;;18.72;48.36;100795.50;5033259;28;19959;-69
2021/10/05 09:47:34;;;;;;;7.00;4.20;;;;;;;18.73;49.13;100794.50;5033387;28;20025;-70
2021/10/05 09:50:00;;;;;;;10.35;4.15;;;;;;;18.68;48.29;100798.75;5031512;28;20097;-70
2021/10/05 09:52:40;;;;;;;14.65;5.07;;;;;;;18.72;48.52;100791.97;5031612;28;20069;-70
2021/10/05 09:55:05;;;;;;;13.55;4.82;;;;;;;18.55;48.83;100793.19;5033135;28;20033;-70
2021/10/05 09:57:31;;;;;;;13.02;4.93;;;;;;;18.63;48.92;100785.06;5032971;28;20036;-69
2021/10/05 09:59:56;;;;;;;12.05;4.65;;;;;;;18.70;47.85;100786.78;5032231;28;20040;-70
2021/10/05 10:02:23;;;;;;;6.57;4.00;;;;;;;19.05;47.85;100777.06;5032427;28;20026;-70
2021/10/05 10:04:50;;;;;;;10.43;4.10;;;;;;;19.09;47.69;100772.97;5033404;28;20064;-70
2021/10/05 10:07:16;;;;;;;7.18;3.90;;;;;;;19.38;46.89;100777.34;5034420;28;20096;-70
2021/10/05 10:09:42;;;;;;;12.35;4.53;;;;;;;19.12;46.95;100774.44;5037366;28;20072;-70
2021/10/05 10:12:08;;;;;;;12.32;4.90;;;;;;;19.39;47.02;100787.06;5038121;28;20033;-70
2021/10/05 10:14:34;;;;;;;13.07;3.65;;;;;;;19.66;45.01;100774.72;5036904;28;20094;-70
2021/10/05 10:17:00;;;;;;;8.27;3.55;;;;;;;19.60;45.67;100777.34;5036378;28;20029;-70
2021/10/05 10:19:29;;;;;;;6.53;3.05;;;;;;;19.44;45.17;100770.38;5037360;28;20266;-70
2021/10/05 10:22:08;;;;;;;11.30;3.80;;;;;;;19.38;45.62;100772.00;5035251;28;20025;-69
2021/10/05 10:24:50;;;;;;;7.05;3.10;;;;;;;19.33;45.64;100763.69;5034045;28;20022;-69
2021/10/05 10:27:17;;;;;;;9.60;3.40;;;;;;;19.01;45.70;100740.06;5035714;28;20025;-70
2021/10/05 10:29:43;;;;;;;8.80;3.70;;;;;;;19.28;45.61;100758.06;5034568;28;20108;-70
2021/10/05 10:32:21;;;;;;;9.93;3.70;;;;;;;19.29;46.73;100773.16;5037503;28;20045;-70
2021/10/05 10:35:00;;;;;;;6.75;3.40;;;;;;;19.44;46.69;100768.53;5037155;28;20044;-70
2021/10/05 10:37:25;;;;;;;12.30;4.15;;;;;;;19.52;46.75;100772.09;5035787;28;20061;-70
2021/10/05 10:39:53;;;;;;;5.28;2.88;;;;;;;19.58;44.80;100765.97;5036203;28;20143;-70
2021/10/05 10:42:29;;;;;;;8.63;3.17;;;;;;;19.64;44.11;100763.31;5039996;28;20346;-70
2021/10/05 10:44:56;;;;;;;6.70;3.15;;;;;;;19.77;44.19;100773.38;5043054;28;20034;-70
2021/10/05 10:47:23;;;;;;;11.75;3.20;;;;;;;19.40;43.99;100769.09;5042247;28;20097;-70
2021/10/05 10:50:00;;;;;;;10.30;3.03;;;;;;;19.34;44.32;100775.25;5041485;28;20026;-70
2021/10/05 10:52:27;;;;;;;8.48;2.85;;;;;;;19.26;44.05;100754.75;5041428;28;20049;-70
2021/10/05 10:54:55;;;;;;;7.78;3.53;;;;;;;19.57;43.15;100746.34;5040973;28;20048;-70
2021/10/05 10:57:32;;;;;;;9.65;4.47;;;;;;;19.61;44.18;100758.34;5042619;28;20032;-70
2021/10/05 11:00:09;;;;;;;7.10;3.38;;;;;;;19.53;44.10;100758.50;5042744;28;20092;-70
2021/10/05 11:02:41;;;;;;;10.35;4.10;;;;;;;19.60;44.85;100756.69;5041924;28;20041;-70
2021/10/05 11:05:07;;;;;;;10.02;4.30;;;;;;;19.67;43.78;100743.28;5042570;28;20025;-70
2021/10/05 11:07:32;;;;;;;10.05;3.85;;;;;;;19.69;43.76;100741.25;5024509;28;20040;-70
2021/10/05 11:09:58;;;;;;;10.52;4.57;;;;;;;19.79;44.34;100732.84;5041833;28;20067;-70
2021/10/05 11:12:24;;;;;;;9.88;4.57;;;;;;;19.83;44.56;100736.81;5042380;28;20226;-70